createdAt,value
2022-12-12T06:16:55.678Z,-8.88
2022-12-12T06:26:55.837Z,-8.65
2022-12-12T06:36:55.681Z,-8.48
2022-12-12T06:46:55.762Z,-8.22
2022-12-12T06:56:55.792Z,-8.70
2022-12-12T07:06:55.757Z,-8.76
2022-12-12T07:16:55.813Z,-8.16
2022-12-12T07:26:55.774Z,-7.88
2022-12-12T07:37:02.339Z,-7.27
2022-12-12T07:46:55.702Z,-6.90
2022-12-12T07:56:55.896Z,-6.63
2022-12-12T08:06:59.777Z,-6.59
2022-12-12T08:16:55.910Z,-6.45
2022-12-12T08:26:55.833Z,-6.42
2022-12-12T08:36:55.843Z,-6.16
2022-12-12T08:46:55.906Z,-5.97
2022-12-12T08:56:55.841Z,-5.63
2022-12-12T09:06:55.761Z,-5.41
2022-12-12T09:16:55.881Z,-5.23
2022-12-12T09:26:55.743Z,-4.23
2022-12-12T09:36:55.742Z,-3.31
2022-12-12T09:46:55.792Z,-2.34
2022-12-12T09:56:55.970Z,-3.78
2022-12-12T10:06:56.081Z,-4.05
2022-12-12T10:16:58.193Z,-3.97
2022-12-12T10:26:56.150Z,-3.83
2022-12-12T10:36:56.656Z,-3.79
2022-12-12T10:46:56.258Z,-3.83
2022-12-12T10:56:56.135Z,-3.10
2022-12-12T11:06:56.257Z,-2.66
2022-12-12T11:16:56.083Z,-2.28
2022-12-12T11:26:56.199Z,-2.25
2022-12-12T11:36:56.199Z,-2.44
2022-12-12T11:46:56.302Z,-2.16
2022-12-12T11:56:56.164Z,-1.91
2022-12-12T12:06:56.158Z,-1.75
2022-12-12T12:16:56.289Z,-1.34
2022-12-12T12:26:56.151Z,-1.15
2022-12-12T12:36:56.261Z,-1.51
2022-12-12T12:46:56.226Z,-1.22
2022-12-12T12:56:56.208Z,-0.99
2022-12-12T13:06:56.187Z,-1.01
2022-12-12T13:16:56.309Z,-0.57
2022-12-12T13:26:56.401Z,-1.24
2022-12-12T13:36:56.379Z,-1.29
2022-12-12T13:46:56.260Z,-0.89
2022-12-12T13:56:56.290Z,-1.00
2022-12-12T14:06:56.279Z,-0.90
2022-12-12T14:16:56.298Z,-1.72
2022-12-12T14:26:56.302Z,-2.03
2022-12-12T14:36:56.524Z,-2.30
2022-12-12T14:46:56.362Z,-2.93
2022-12-12T14:56:56.289Z,-3.84
2022-12-12T15:06:56.362Z,-4.34
2022-12-12T15:16:56.511Z,-4.52
2022-12-12T15:26:56.491Z,-4.80
2022-12-12T15:36:56.429Z,-4.66
2022-12-12T15:46:56.426Z,-4.56
2022-12-12T15:56:56.404Z,-5.00
2022-12-12T16:06:56.411Z,-5.50
2022-12-12T16:16:56.240Z,-5.53
2022-12-12T16:26:56.442Z,-5.67
2022-12-12T16:36:56.521Z,-5.93
2022-12-12T16:46:56.389Z,-6.12
2022-12-12T16:56:56.448Z,-5.99
2022-12-12T17:06:56.401Z,-6.35
2022-12-12T17:16:56.481Z,-6.76
2022-12-12T17:26:56.545Z,-6.90
2022-12-12T17:36:56.426Z,-7.22
2022-12-12T17:46:56.435Z,-7.64
2022-12-12T17:56:56.413Z,-7.21
2022-12-12T18:06:56.514Z,-7.14
2022-12-12T18:16:56.581Z,-6.97
2022-12-12T18:26:56.482Z,-7.38
2022-12-12T18:36:56.555Z,-7.58
2022-12-12T18:46:56.495Z,-7.26
2022-12-12T18:56:56.491Z,-7.71
2022-12-12T19:06:56.509Z,-7.71
2022-12-12T19:16:56.555Z,-8.05
